ACA101 CYHZ-CYDF
Flight info
| Callsign | ACA101 |
|---|---|
| Flight time | N/A |
| Altitude | 37000 |
| Route | IGTAS Q846 NOTOP T804 SASUG T818 UMETI DCT H4858 DCT LOPRO |
| Aircraft | L101/H-SDFGHIRWXY/S |
Departure
| Time | 2026-05-04 21:21 |
|---|---|
| Airport | Halifax / Stanfield International Airport (CYHZ) |
Arrival
| Time | N/A |
|---|---|
| Airport | Deer Lake Airport (CYDF) |
| Time | Latitude | Longitude | Altitude | Speed | Heading |
|---|---|---|---|---|---|
| 2026-05-04 20:19 | 44.88928 | -63.51568 | 455 ft | 0 kts | 215° |
| 2026-05-04 21:02 | 44.88939 | -63.51557 | 456 ft | 3 kts | 215° |
| 2026-05-04 21:03 | 44.88959 | -63.51538 | 454 ft | 3 kts | 215° |
| 2026-05-04 21:03 | 44.88977 | -63.51520 | 453 ft | 2 kts | 215° |
| 2026-05-04 21:03 | 44.88993 | -63.51507 | 455 ft | 3 kts | 175° |
| 2026-05-04 21:03 | 44.89010 | -63.51520 | 455 ft | 3 kts | 128° |
| 2026-05-04 21:04 | 44.89023 | -63.51545 | 455 ft | 3 kts | 126° |
| 2026-05-04 21:04 | 44.89028 | -63.51555 | 454 ft | 0 kts | 126° |
| 2026-05-04 21:09 | 44.89026 | -63.51550 | 454 ft | 2 kts | 126° |
| 2026-05-04 21:09 | 44.89013 | -63.51525 | 456 ft | 4 kts | 126° |
| 2026-05-04 21:10 | 44.88992 | -63.51484 | 455 ft | 6 kts | 126° |
| 2026-05-04 21:10 | 44.88969 | -63.51438 | 456 ft | 6 kts | 125° |
| 2026-05-04 21:10 | 44.88945 | -63.51391 | 456 ft | 6 kts | 125° |
| 2026-05-04 21:10 | 44.88921 | -63.51342 | 455 ft | 6 kts | 127° |
| 2026-05-04 21:11 | 44.88886 | -63.51308 | 456 ft | 6 kts | 157° |
| 2026-05-04 21:11 | 44.88845 | -63.51297 | 456 ft | 6 kts | 171° |
| 2026-05-04 21:11 | 44.88802 | -63.51287 | 456 ft | 6 kts | 171° |
| 2026-05-04 21:11 | 44.88759 | -63.51278 | 456 ft | 6 kts | 171° |
| 2026-05-04 21:12 | 44.88713 | -63.51268 | 456 ft | 7 kts | 171° |
| 2026-05-04 21:12 | 44.88664 | -63.51256 | 457 ft | 7 kts | 169° |
| 2026-05-04 21:12 | 44.88614 | -63.51243 | 457 ft | 8 kts | 169° |
| 2026-05-04 21:12 | 44.88562 | -63.51229 | 456 ft | 7 kts | 169° |
| 2026-05-04 21:13 | 44.88512 | -63.51216 | 456 ft | 7 kts | 171° |
| 2026-05-04 21:13 | 44.88458 | -63.51204 | 456 ft | 9 kts | 171° |
| 2026-05-04 21:13 | 44.88401 | -63.51227 | 456 ft | 9 kts | 220° |
| 2026-05-04 21:13 | 44.88371 | -63.51295 | 456 ft | 7 kts | 279° |
| 2026-05-04 21:14 | 44.88399 | -63.51313 | 456 ft | 4 kts | 19° |
| 2026-05-04 21:14 | 44.88414 | -63.51277 | 456 ft | 5 kts | 65° |
| 2026-05-04 21:14 | 44.88438 | -63.51229 | 456 ft | 6 kts | 38° |
| 2026-05-04 21:14 | 44.88485 | -63.51213 | 456 ft | 8 kts | 359° |
| 2026-05-04 21:15 | 44.88548 | -63.51224 | 456 ft | 11 kts | 351° |
| 2026-05-04 21:15 | 44.88631 | -63.51245 | 457 ft | 14 kts | 350° |
| 2026-05-04 21:15 | 44.88708 | -63.51251 | 451 ft | 9 kts | 28° |
| 2026-05-04 21:15 | 44.88719 | -63.51169 | 456 ft | 11 kts | 101° |
| 2026-05-04 21:16 | 44.88710 | -63.51047 | 456 ft | 14 kts | 84° |
| 2026-05-04 21:16 | 44.88749 | -63.50905 | 456 ft | 17 kts | 47° |
| 2026-05-04 21:16 | 44.88856 | -63.50793 | 455 ft | 22 kts | 34° |
| 2026-05-04 21:16 | 44.88964 | -63.50685 | 455 ft | 11 kts | 37° |
| 2026-05-04 21:17 | 44.89004 | -63.50605 | 456 ft | 7 kts | 88° |
| 2026-05-04 21:17 | 44.88978 | -63.50534 | 456 ft | 10 kts | 124° |
| 2026-05-04 21:17 | 44.88929 | -63.50438 | 455 ft | 13 kts | 137° |
| 2026-05-04 21:17 | 44.88874 | -63.50444 | 456 ft | 9 kts | 215° |
| 2026-05-04 21:18 | 44.88830 | -63.50490 | 454 ft | 4 kts | 216° |
| 2026-05-04 21:18 | 44.88829 | -63.50491 | 455 ft | 0 kts | 216° |
| 2026-05-04 21:20 | 44.88777 | -63.50544 | 456 ft | 29 kts | 216° |
| 2026-05-04 21:21 | 44.88378 | -63.50938 | 456 ft | 114 kts | 216° |
| 2026-05-04 21:21 | 44.87544 | -63.51750 | 749 ft | 163 kts | 219° |
| 2026-05-04 21:21 | 44.86592 | -63.52675 | 1798 ft | 169 kts | 219° |
| 2026-05-04 21:21 | 44.85609 | -63.53605 | 3043 ft | 170 kts | 219° |
| 2026-05-04 21:22 | 44.84604 | -63.54520 | 4183 ft | 174 kts | 223° |
| 2026-05-04 21:22 | 44.83567 | -63.55458 | 5026 ft | 184 kts | 224° |
| 2026-05-04 21:22 | 44.82431 | -63.56519 | 5541 ft | 208 kts | 222° |
| 2026-05-04 21:22 | 44.81076 | -63.57602 | 6108 ft | 237 kts | 219° |
| 2026-05-04 21:23 | 44.79640 | -63.58693 | 7341 ft | 228 kts | 219° |
| 2026-05-04 21:23 | 44.78298 | -63.59733 | 8846 ft | 217 kts | 220° |
| 2026-05-04 21:23 | 44.76957 | -63.60858 | 9624 ft | 236 kts | 221° |
| 2026-05-04 21:23 | 44.75526 | -63.62187 | 10222 ft | 254 kts | 222° |
| 2026-05-04 21:24 | 44.74034 | -63.63491 | 11432 ft | 247 kts | 216° |
| 2026-05-04 21:24 | 44.72392 | -63.64319 | 12568 ft | 262 kts | 201° |
| 2026-05-04 21:24 | 44.70486 | -63.64491 | 13197 ft | 292 kts | 183° |
| 2026-05-04 21:24 | 44.68404 | -63.63761 | 13630 ft | 327 kts | 165° |
| 2026-05-04 21:25 | 44.66367 | -63.62090 | 13972 ft | 360 kts | 148° |
| 2026-05-04 21:25 | 44.64545 | -63.59466 | 14541 ft | 380 kts | 132° |
| 2026-05-04 21:25 | 44.63184 | -63.56271 | 15157 ft | 395 kts | 118° |
| 2026-05-04 21:25 | 44.62301 | -63.52573 | 15851 ft | 402 kts | 105° |
| 2026-05-04 21:26 | 44.61933 | -63.48657 | 16432 ft | 407 kts | 93° |
| 2026-05-04 21:26 | 44.62115 | -63.44713 | 17101 ft | 404 kts | 80° |
| 2026-05-04 21:26 | 44.62899 | -63.40954 | 17749 ft | 399 kts | 64° |
| 2026-05-04 21:26 | 44.64257 | -63.37607 | 18397 ft | 392 kts | 49° |
| 2026-05-04 21:27 | 44.66083 | -63.34834 | 19018 ft | 381 kts | 36° |
| 2026-05-04 21:27 | 44.68148 | -63.32579 | 19667 ft | 372 kts | 28° |
| 2026-05-04 21:27 | 44.68607 | -63.32136 | 19783 ft | 371 kts | 27° |
| 2026-05-04 21:27 | 44.70384 | -63.30498 | 20379 ft | 364 kts | 26° |
| 2026-05-04 21:28 | 44.72511 | -63.28594 | 21010 ft | 361 kts | 25° |
| 2026-05-04 21:28 | 44.74605 | -63.26698 | 21692 ft | 357 kts | 25° |
| 2026-05-04 21:28 | 44.76708 | -63.24822 | 22214 ft | 357 kts | 24° |
| 2026-05-04 21:28 | 44.78810 | -63.22982 | 22805 ft | 356 kts | 24° |
| 2026-05-04 21:29 | 44.80918 | -63.21132 | 23366 ft | 357 kts | 24° |
| 2026-05-04 21:29 | 44.83019 | -63.19278 | 23830 ft | 357 kts | 24° |
| 2026-05-04 21:29 | 44.85124 | -63.17423 | 24320 ft | 356 kts | 24° |
| 2026-05-04 21:29 | 44.87221 | -63.15564 | 24792 ft | 356 kts | 24° |
| 2026-05-04 21:30 | 44.89307 | -63.13694 | 25297 ft | 354 kts | 25° |
| 2026-05-04 21:30 | 44.91377 | -63.11816 | 25790 ft | 353 kts | 25° |
| 2026-05-04 21:30 | 44.93428 | -63.09919 | 26321 ft | 351 kts | 26° |
| 2026-05-04 21:30 | 44.95455 | -63.08014 | 26847 ft | 349 kts | 26° |
| 2026-05-04 21:31 | 44.99437 | -63.04181 | 27925 ft | 344 kts | 27° |
| 2026-05-04 21:31 | 45.01380 | -63.02246 | 28491 ft | 339 kts | 28° |
| 2026-05-04 21:31 | 45.03281 | -63.00298 | 29028 ft | 336 kts | 29° |
| 2026-05-04 21:32 | 45.05137 | -62.98325 | 29587 ft | 332 kts | 30° |
| 2026-05-04 21:32 | 45.06889 | -62.96170 | 29919 ft | 340 kts | 44° |
| 2026-05-04 21:32 | 45.08318 | -62.93418 | 29976 ft | 356 kts | 58° |
| 2026-05-04 21:32 | 45.09447 | -62.90315 | 30191 ft | 360 kts | 62° |
| 2026-05-04 21:33 | 45.10578 | -62.87149 | 30466 ft | 362 kts | 58° |
| 2026-05-04 21:33 | 45.11852 | -62.84038 | 30638 ft | 368 kts | 55° |
| 2026-05-04 21:33 | 45.13256 | -62.80977 | 30787 ft | 374 kts | 53° |
| 2026-05-04 21:34 | 45.16120 | -62.74633 | 30942 ft | 391 kts | 57° |
| 2026-05-04 21:34 | 45.18907 | -62.67782 | 30968 ft | 411 kts | 59° |
| 2026-05-04 21:35 | 45.21757 | -62.60527 | 30973 ft | 430 kts | 59° |
| 2026-05-04 21:35 | 45.24759 | -62.52995 | 30977 ft | 446 kts | 58° |
| 2026-05-04 21:36 | 45.27936 | -62.45331 | 30971 ft | 460 kts | 57° |
| 2026-05-04 21:36 | 45.31239 | -62.37400 | 30960 ft | 473 kts | 58° |
| 2026-05-04 21:36 | 45.32877 | -62.33321 | 31086 ft | 475 kts | 59° |
| 2026-05-04 21:37 | 45.33965 | -62.30558 | 31257 ft | 474 kts | 59° |
| 2026-05-04 21:37 | 45.35548 | -62.26496 | 31481 ft | 474 kts | 59° |
| 2026-05-04 21:37 | 45.37138 | -62.22393 | 31688 ft | 473 kts | 59° |
| 2026-05-04 21:37 | 45.38730 | -62.18298 | 31940 ft | 472 kts | 59° |
| 2026-05-04 21:38 | 45.40332 | -62.14233 | 32195 ft | 470 kts | 59° |
| 2026-05-04 21:38 | 45.41953 | -62.10187 | 32460 ft | 469 kts | 58° |
| 2026-05-04 21:38 | 45.43588 | -62.06177 | 32727 ft | 468 kts | 58° |
| 2026-05-04 21:38 | 45.45218 | -62.02184 | 32986 ft | 466 kts | 59° |
| 2026-05-04 21:39 | 45.46790 | -61.98151 | 33255 ft | 465 kts | 60° |
| 2026-05-04 21:39 | 45.48291 | -61.94080 | 33537 ft | 463 kts | 62° |
| 2026-05-04 21:39 | 45.49733 | -61.89968 | 33791 ft | 462 kts | 63° |
| 2026-05-04 21:39 | 45.51112 | -61.85893 | 34026 ft | 460 kts | 63° |
| 2026-05-04 21:40 | 45.52513 | -61.81798 | 34261 ft | 458 kts | 62° |
| 2026-05-04 21:40 | 45.53959 | -61.77756 | 34476 ft | 456 kts | 61° |
| 2026-05-04 21:40 | 45.55447 | -61.73773 | 34704 ft | 454 kts | 60° |
| 2026-05-04 21:40 | 45.56973 | -61.69840 | 34935 ft | 452 kts | 59° |
| 2026-05-04 21:41 | 45.58501 | -61.65934 | 35150 ft | 450 kts | 60° |
| 2026-05-04 21:41 | 45.59991 | -61.62018 | 35386 ft | 447 kts | 60° |
| 2026-05-04 21:41 | 45.61443 | -61.58099 | 35611 ft | 446 kts | 61° |
| 2026-05-04 21:41 | 45.62866 | -61.54180 | 35863 ft | 443 kts | 62° |
| 2026-05-04 21:42 | 45.64266 | -61.50255 | 36105 ft | 441 kts | 62° |
| 2026-05-04 21:42 | 45.65636 | -61.46354 | 36335 ft | 438 kts | 63° |
| 2026-05-04 21:42 | 45.66995 | -61.42446 | 36554 ft | 436 kts | 63° |
| 2026-05-04 21:43 | 45.69741 | -61.34713 | 36676 ft | 442 kts | 62° |
| 2026-05-04 21:43 | 45.72679 | -61.26899 | 36682 ft | 450 kts | 60° |
| 2026-05-04 21:44 | 45.75685 | -61.18959 | 36673 ft | 458 kts | 61° |
| 2026-05-04 21:44 | 45.78617 | -61.10793 | 36668 ft | 465 kts | 63° |
| 2026-05-04 21:45 | 45.81486 | -61.02429 | 36666 ft | 470 kts | 63° |
| 2026-05-04 21:45 | 45.84687 | -60.94213 | 36601 ft | 475 kts | 47° |
| 2026-05-04 21:45 | 45.87068 | -60.90965 | 36603 ft | 470 kts | 30° |
| 2026-05-04 21:46 | 45.89864 | -60.88603 | 36886 ft | 460 kts | 23° |
| 2026-05-04 21:46 | 45.92643 | -60.86465 | 37037 ft | 461 kts | 26° |
| 2026-05-04 21:46 | 45.95429 | -60.84062 | 36728 ft | 472 kts | 29° |
| 2026-05-04 21:47 | 46.00902 | -60.78745 | 36871 ft | 480 kts | 31° |
| 2026-05-04 21:47 | 46.03696 | -60.76023 | 36660 ft | 489 kts | 30° |
| 2026-05-04 21:47 | 46.06543 | -60.73340 | 36703 ft | 488 kts | 29° |
| 2026-05-04 21:48 | 46.12314 | -60.68127 | 36640 ft | 491 kts | 28° |
| 2026-05-04 21:48 | 46.18100 | -60.62863 | 36640 ft | 492 kts | 29° |
| 2026-05-04 21:49 | 46.23848 | -60.57450 | 36626 ft | 494 kts | 30° |
| 2026-05-04 21:49 | 46.29606 | -60.52001 | 36639 ft | 495 kts | 30° |
| 2026-05-04 21:50 | 46.35369 | -60.46555 | 36634 ft | 495 kts | 30° |
| 2026-05-04 21:50 | 46.41121 | -60.41057 | 36616 ft | 495 kts | 30° |
| 2026-05-04 21:51 | 46.46822 | -60.35575 | 36628 ft | 495 kts | 31° |
| 2026-05-04 21:51 | 46.52560 | -60.30063 | 36624 ft | 494 kts | 31° |
| 2026-05-04 21:52 | 46.58290 | -60.24541 | 36617 ft | 494 kts | 31° |
| 2026-05-04 21:52 | 46.64015 | -60.19006 | 36628 ft | 494 kts | 31° |
| 2026-05-04 21:53 | 46.69727 | -60.13457 | 36626 ft | 491 kts | 31° |
| 2026-05-04 21:53 | 46.75358 | -60.07954 | 36639 ft | 490 kts | 31° |
| 2026-05-04 21:54 | 46.81028 | -60.02420 | 36632 ft | 491 kts | 31° |
| 2026-05-04 21:54 | 46.86699 | -59.96875 | 36630 ft | 490 kts | 31° |
| 2026-05-04 21:55 | 46.92362 | -59.91316 | 36639 ft | 489 kts | 31° |
| 2026-05-04 21:55 | 46.98019 | -59.85759 | 36634 ft | 489 kts | 31° |
| 2026-05-04 21:56 | 47.03672 | -59.80188 | 36619 ft | 490 kts | 31° |